JSR weather

Jessore Airport
Jashahor, Khulna Division, Bangladesh

Public forecast

Using degrees Celsius for public forecast. Weather courtesy of forecast.io.

Closest aviation weather report (METAR) to Jessore Airport

Closest report is Netaji Subhash Chandra Bose International Airport, 50.7 nm (93.9 km) SW. Retrieved 2020/04/06 18:30 UTC (1 minute ago):

VECC 061830Z 22007KT 3200 HZ NSC 29/20 Q1008 BECMG 3000 HZ

Closest aviation forecast (TAF) to Jessore Airport

Closest forecast is Netaji Subhash Chandra Bose International Airport, 50.7 nm (93.9 km) SW. Retrieved 2020/04/06 18:42 UTC (0 seconds ago):

TAF VECC 061700Z 0618/0718 20005KT 3200 HZ NSC BECMG 0623/0701 2200 BR FEW020 BECMG 0703/0705 3500 HZ FEW100 BECMG 0706/0708 5000 HZ FEW020 SCT100 BECMG 0714/0716 00000KT 3500 HZ FEW100 BECMG 0722/0724 2500 BR